sensor_id;sensor_type;location;lat;lon;timestamp;pressure;altitude;pressure_sealevel;temperature;humidity
706;BME280;21234;48.690;9.016;2023-04-06T00:00:08;96315.97;;;0.81;64.07
706;BME280;21234;48.690;9.016;2023-04-06T00:02:36;96319.94;;;0.85;64.13
706;BME280;21234;48.690;9.016;2023-04-06T00:05:05;96316.97;;;0.94;64.52
706;BME280;21234;48.690;9.016;2023-04-06T00:07:33;96310.72;;;0.73;64.15
706;BME280;21234;48.690;9.016;2023-04-06T00:10:00;96306.41;;;0.72;63.96
706;BME280;21234;48.690;9.016;2023-04-06T00:12:27;96308.31;;;0.78;64.41
706;BME280;21234;48.690;9.016;2023-04-06T00:14:54;96305.66;;;0.78;64.60
706;BME280;21234;48.690;9.016;2023-04-06T00:17:20;96302.03;;;0.85;64.33
706;BME280;21234;48.690;9.016;2023-04-06T00:19:47;96301.97;;;0.79;64.42
706;BME280;21234;48.690;9.016;2023-04-06T00:22:15;96306.97;;;0.67;64.80
706;BME280;21234;48.690;9.016;2023-04-06T00:24:42;96303.91;;;0.70;65.31
706;BME280;21234;48.690;9.016;2023-04-06T00:27:09;96294.00;;;0.49;66.25
706;BME280;21234;48.690;9.016;2023-04-06T00:29:36;96300.53;;;0.61;65.89
706;BME280;21234;48.690;9.016;2023-04-06T00:32:04;96298.88;;;0.46;66.12
706;BME280;21234;48.690;9.016;2023-04-06T00:34:30;96298.44;;;0.42;66.53
706;BME280;21234;48.690;9.016;2023-04-06T00:36:57;96299.81;;;0.38;67.18
706;BME280;21234;48.690;9.016;2023-04-06T00:39:25;96292.97;;;0.65;67.53
706;BME280;21234;48.690;9.016;2023-04-06T00:41:53;96291.25;;;0.79;66.77
706;BME280;21234;48.690;9.016;2023-04-06T00:44:20;96296.03;;;0.62;67.24
706;BME280;21234;48.690;9.016;2023-04-06T00:46:48;96292.44;;;0.55;67.71
706;BME280;21234;48.690;9.016;2023-04-06T00:49:15;96288.09;;;0.39;67.41
706;BME280;21234;48.690;9.016;2023-04-06T00:51:42;96291.31;;;0.49;67.56
706;BME280;21234;48.690;9.016;2023-04-06T00:54:09;96282.00;;;0.45;68.30
706;BME280;21234;48.690;9.016;2023-04-06T00:56:37;96282.59;;;0.26;69.74
706;BME280;21234;48.690;9.016;2023-04-06T00:59:04;96293.31;;;0.26;68.97
706;BME280;21234;48.690;9.016;2023-04-06T01:01:31;96276.13;;;0.35;69.39
706;BME280;21234;48.690;9.016;2023-04-06T01:03:58;96277.78;;;0.36;68.62
706;BME280;21234;48.690;9.016;2023-04-06T01:06:25;96274.84;;;0.16;70.42
706;BME280;21234;48.690;9.016;2023-04-06T01:08:52;96275.59;;;0.10;69.52
706;BME280;21234;48.690;9.016;2023-04-06T01:11:19;96274.13;;;0.22;70.06
706;BME280;21234;48.690;9.016;2023-04-06T01:13:47;96270.72;;;0.14;70.38
706;BME280;21234;48.690;9.016;2023-04-06T01:16:14;96269.31;;;0.03;69.88
706;BME280;21234;48.690;9.016;2023-04-06T01:18:41;96271.72;;;0.13;68.67
706;BME280;21234;48.690;9.016;2023-04-06T01:21:09;96268.88;;;0.14;69.38
706;BME280;21234;48.690;9.016;2023-04-06T01:23:43;96273.56;;;0.12;70.46
706;BME280;21234;48.690;9.016;2023-04-06T01:26:11;96266.09;;;0.22;70.01
706;BME280;21234;48.690;9.016;2023-04-06T01:28:37;96261.59;;;0.08;70.30
706;BME280;21234;48.690;9.016;2023-04-06T01:31:06;96263.88;;;0.11;70.66
706;BME280;21234;48.690;9.016;2023-04-06T01:33:33;96262.13;;;0.18;70.66
706;BME280;21234;48.690;9.016;2023-04-06T01:35:59;96257.91;;;0.09;70.40
706;BME280;21234;48.690;9.016;2023-04-06T01:38:26;96254.69;;;-0.01;70.91
706;BME280;21234;48.690;9.016;2023-04-06T01:40:55;96253.38;;;0.10;70.29
706;BME280;21234;48.690;9.016;2023-04-06T01:43:21;96259.38;;;0.26;71.14
706;BME280;21234;48.690;9.016;2023-04-06T01:45:48;96255.69;;;0.27;70.92
706;BME280;21234;48.690;9.016;2023-04-06T01:48:16;96259.25;;;0.34;70.83
706;BME280;21234;48.690;9.016;2023-04-06T01:50:43;96260.56;;;0.09;71.20
706;BME280;21234;48.690;9.016;2023-04-06T01:53:10;96250.09;;;-0.07;72.54
706;BME280;21234;48.690;9.016;2023-04-06T01:55:37;96245.44;;;0.16;71.47
706;BME280;21234;48.690;9.016;2023-04-06T01:58:05;96252.38;;;0.11;71.20
706;BME280;21234;48.690;9.016;2023-04-06T02:00:32;96245.66;;;0.00;72.01
706;BME280;21234;48.690;9.016;2023-04-06T02:02:59;96246.75;;;0.06;71.97
706;BME280;21234;48.690;9.016;2023-04-06T02:05:26;96241.41;;;-0.24;73.37
706;BME280;21234;48.690;9.016;2023-04-06T02:07:53;96249.78;;;-0.27;72.93
706;BME280;21234;48.690;9.016;2023-04-06T02:10:20;96249.53;;;-0.17;72.36
706;BME280;21234;48.690;9.016;2023-04-06T02:12:46;96247.22;;;-0.20;72.22
706;BME280;21234;48.690;9.016;2023-04-06T02:15:15;96256.81;;;-0.11;72.50
706;BME280;21234;48.690;9.016;2023-04-06T02:17:42;96248.94;;;0.02;70.85
706;BME280;21234;48.690;9.016;2023-04-06T02:20:09;96241.22;;;0.07;71.16
706;BME280;21234;48.690;9.016;2023-04-06T02:22:36;96242.59;;;0.03;71.94
706;BME280;21234;48.690;9.016;2023-04-06T02:25:03;96236.34;;;-0.04;71.08
706;BME280;21234;48.690;9.016;2023-04-06T02:27:30;96248.78;;;-0.11;71.84
706;BME280;21234;48.690;9.016;2023-04-06T02:29:57;96252.00;;;-0.16;72.67
706;BME280;21234;48.690;9.016;2023-04-06T02:32:25;96240.59;;;-0.10;72.50
706;BME280;21234;48.690;9.016;2023-04-06T02:34:52;96242.16;;;-0.15;71.77
706;BME280;21234;48.690;9.016;2023-04-06T02:37:19;96238.94;;;-0.11;72.60
706;BME280;21234;48.690;9.016;2023-04-06T02:39:48;96246.28;;;0.02;71.36
706;BME280;21234;48.690;9.016;2023-04-06T02:42:14;96249.97;;;-0.14;72.37
706;BME280;21234;48.690;9.016;2023-04-06T02:44:41;96244.00;;;-0.16;72.61
706;BME280;21234;48.690;9.016;2023-04-06T02:47:08;96241.69;;;-0.19;72.24
706;BME280;21234;48.690;9.016;2023-04-06T02:49:37;96243.78;;;0.00;72.20
706;BME280;21234;48.690;9.016;2023-04-06T02:52:03;96238.25;;;0.02;71.95
706;BME280;21234;48.690;9.016;2023-04-06T02:54:30;96234.75;;;0.02;73.04
706;BME280;21234;48.690;9.016;2023-04-06T02:56:57;96238.19;;;-0.19;73.63
706;BME280;21234;48.690;9.016;2023-04-06T02:59:24;96232.56;;;-0.10;74.13
706;BME280;21234;48.690;9.016;2023-04-06T03:01:51;96236.53;;;-0.06;73.44
706;BME280;21234;48.690;9.016;2023-04-06T03:04:17;96234.22;;;-0.09;73.17
706;BME280;21234;48.690;9.016;2023-04-06T03:06:46;96234.13;;;-0.30;73.56
706;BME280;21234;48.690;9.016;2023-04-06T03:09:13;96242.13;;;-0.30;74.40
706;BME280;21234;48.690;9.016;2023-04-06T03:11:40;96241.59;;;-0.25;74.14
706;BME280;21234;48.690;9.016;2023-04-06T03:14:07;96241.03;;;-0.21;73.57
706;BME280;21234;48.690;9.016;2023-04-06T03:16:34;96244.00;;;-0.16;73.34
706;BME280;21234;48.690;9.016;2023-04-06T03:19:00;96241.13;;;-0.29;73.64
706;BME280;21234;48.690;9.016;2023-04-06T03:21:27;96243.91;;;-0.22;73.51
706;BME280;21234;48.690;9.016;2023-04-06T03:23:55;96235.34;;;-0.18;72.49
706;BME280;21234;48.690;9.016;2023-04-06T03:26:22;96233.66;;;-0.19;73.75
706;BME280;21234;48.690;9.016;2023-04-06T03:28:49;96239.56;;;-0.23;73.65
706;BME280;21234;48.690;9.016;2023-04-06T03:31:16;96239.84;;;-0.33;73.73
706;BME280;21234;48.690;9.016;2023-04-06T03:33:42;96245.28;;;-0.26;73.43
706;BME280;21234;48.690;9.016;2023-04-06T03:36:09;96249.44;;;-0.39;73.70
706;BME280;21234;48.690;9.016;2023-04-06T03:38:36;96246.22;;;-0.34;73.29
706;BME280;21234;48.690;9.016;2023-04-06T03:41:04;96254.66;;;-0.30;73.06
706;BME280;21234;48.690;9.016;2023-04-06T03:43:31;96250.63;;;-0.41;73.84
706;BME280;21234;48.690;9.016;2023-04-06T03:45:58;96251.91;;;-0.37;74.11
706;BME280;21234;48.690;9.016;2023-04-06T03:48:25;96253.53;;;-0.51;74.02
706;BME280;21234;48.690;9.016;2023-04-06T03:50:51;96255.41;;;-0.37;73.68
706;BME280;21234;48.690;9.016;2023-04-06T03:53:18;96259.16;;;-0.31;73.66
706;BME280;21234;48.690;9.016;2023-04-06T03:55:45;96261.94;;;-0.39;72.89
706;BME280;21234;48.690;9.016;2023-04-06T03:58:13;96261.59;;;-0.21;72.75
706;BME280;21234;48.690;9.016;2023-04-06T04:00:40;96260.47;;;-0.27;73.13
706;BME280;21234;48.690;9.016;2023-04-06T04:03:07;96261.59;;;-0.21;72.83
706;BME280;21234;48.690;9.016;2023-04-06T04:05:34;96265.16;;;-0.29;73.61
706;BME280;21234;48.690;9.016;2023-04-06T04:08:00;96269.41;;;-0.35;73.37
706;BME280;21234;48.690;9.016;2023-04-06T04:10:27;96266.75;;;-0.35;74.25
706;BME280;21234;48.690;9.016;2023-04-06T04:12:54;96263.44;;;-0.37;74.19
706;BME280;21234;48.690;9.016;2023-04-06T04:15:22;96265.63;;;-0.40;74.31
706;BME280;21234;48.690;9.016;2023-04-06T04:17:49;96268.19;;;-0.32;74.13
706;BME280;21234;48.690;9.016;2023-04-06T04:20:16;96266.34;;;-0.46;74.97
706;BME280;21234;48.690;9.016;2023-04-06T04:22:43;96265.06;;;-0.50;74.98
706;BME280;21234;48.690;9.016;2023-04-06T04:25:10;96262.38;;;-0.50;74.38
706;BME280;21234;48.690;9.016;2023-04-06T04:27:37;96260.19;;;-0.47;74.06
706;BME280;21234;48.690;9.016;2023-04-06T04:30:04;96264.41;;;-0.52;75.82
706;BME280;21234;48.690;9.016;2023-04-06T04:32:33;96267.44;;;-0.55;76.03
706;BME280;21234;48.690;9.016;2023-04-06T04:34:59;96278.94;;;-0.55;76.02
706;BME280;21234;48.690;9.016;2023-04-06T04:37:26;96271.19;;;-0.64;75.77
706;BME280;21234;48.690;9.016;2023-04-06T04:39:53;96278.22;;;-0.49;75.46
706;BME280;21234;48.690;9.016;2023-04-06T04:42:20;96264.81;;;-0.41;75.10
706;BME280;21234;48.690;9.016;2023-04-06T04:44:47;96272.16;;;-0.43;74.06
706;BME280;21234;48.690;9.016;2023-04-06T04:47:14;96269.50;;;-0.43;75.06
706;BME280;21234;48.690;9.016;2023-04-06T04:49:42;96273.94;;;-0.35;74.47
706;BME280;21234;48.690;9.016;2023-04-06T04:52:09;96274.72;;;-0.49;75.35
706;BME280;21234;48.690;9.016;2023-04-06T04:54:35;96278.66;;;-0.60;76.07
706;BME280;21234;48.690;9.016;2023-04-06T04:57:03;96276.38;;;-0.48;75.76
706;BME280;21234;48.690;9.016;2023-04-06T04:59:29;96272.31;;;-0.59;76.72
706;BME280;21234;48.690;9.016;2023-04-06T05:01:56;96280.59;;;-0.69;76.23
706;BME280;21234;48.690;9.016;2023-04-06T05:04:23;96275.25;;;-0.69;76.14
706;BME280;21234;48.690;9.016;2023-04-06T05:07:02;96286.72;;;-0.45;75.28
706;BME280;21234;48.690;9.016;2023-04-06T05:09:29;96281.47;;;-0.39;74.40
706;BME280;21234;48.690;9.016;2023-04-06T05:11:56;96279.72;;;-0.31;75.02
706;BME280;21234;48.690;9.016;2023-04-06T05:14:23;96277.88;;;-0.46;76.54
706;BME280;21234;48.690;9.016;2023-04-06T05:16:50;96277.50;;;-0.28;76.19
706;BME280;21234;48.690;9.016;2023-04-06T05:19:17;96279.53;;;-0.45;75.80
706;BME280;21234;48.690;9.016;2023-04-06T05:21:44;96279.63;;;-0.38;76.49
706;BME280;21234;48.690;9.016;2023-04-06T05:24:12;96289.41;;;-0.16;75.72
706;BME280;21234;48.690;9.016;2023-04-06T05:26:39;96279.44;;;-0.22;75.54
706;BME280;21234;48.690;9.016;2023-04-06T05:29:06;96285.72;;;-0.15;75.15
706;BME280;21234;48.690;9.016;2023-04-06T05:31:32;96285.91;;;0.13;74.31
706;BME280;21234;48.690;9.016;2023-04-06T05:33:59;96287.22;;;0.17;74.00
706;BME280;21234;48.690;9.016;2023-04-06T05:36:26;96289.50;;;0.06;75.26
706;BME280;21234;48.690;9.016;2023-04-06T05:38:53;96296.50;;;0.07;75.77
706;BME280;21234;48.690;9.016;2023-04-06T05:41:23;96297.06;;;0.02;76.21
706;BME280;21234;48.690;9.016;2023-04-06T05:43:50;96295.84;;;0.34;75.47
706;BME280;21234;48.690;9.016;2023-04-06T05:46:16;96292.81;;;0.37;73.11
706;BME280;21234;48.690;9.016;2023-04-06T05:48:43;96291.06;;;0.44;72.41
706;BME280;21234;48.690;9.016;2023-04-06T05:51:10;96291.59;;;0.54;72.08
706;BME280;21234;48.690;9.016;2023-04-06T05:53:37;96295.44;;;0.66;72.09
706;BME280;21234;48.690;9.016;2023-04-06T05:56:05;96294.19;;;0.84;71.44
706;BME280;21234;48.690;9.016;2023-04-06T05:58:33;96297.03;;;0.97;70.15
706;BME280;21234;48.690;9.016;2023-04-06T06:01:00;96301.41;;;1.05;66.95
706;BME280;21234;48.690;9.016;2023-04-06T06:03:28;96297.09;;;1.25;66.52
706;BME280;21234;48.690;9.016;2023-04-06T06:05:59;96300.53;;;1.40;65.30
706;BME280;21234;48.690;9.016;2023-04-06T06:08:26;96306.91;;;1.60;64.43
706;BME280;21234;48.690;9.016;2023-04-06T06:10:53;96305.72;;;1.69;63.69
706;BME280;21234;48.690;9.016;2023-04-06T06:13:20;96301.88;;;1.79;62.82
706;BME280;21234;48.690;9.016;2023-04-06T06:15:49;96310.09;;;2.05;62.45
706;BME280;21234;48.690;9.016;2023-04-06T06:18:16;96301.81;;;2.34;62.08
706;BME280;21234;48.690;9.016;2023-04-06T06:20:43;96309.16;;;2.54;61.25
706;BME280;21234;48.690;9.016;2023-04-06T06:23:11;96310.44;;;2.58;61.66
706;BME280;21234;48.690;9.016;2023-04-06T06:25:39;96299.97;;;2.76;60.14
706;BME280;21234;48.690;9.016;2023-04-06T06:28:06;96297.34;;;2.96;59.70
706;BME280;21234;48.690;9.016;2023-04-06T06:30:33;96304.03;;;3.20;58.83
706;BME280;21234;48.690;9.016;2023-04-06T06:33:01;96303.44;;;3.44;57.11
706;BME280;21234;48.690;9.016;2023-04-06T06:35:28;96305.34;;;3.57;57.39
706;BME280;21234;48.690;9.016;2023-04-06T06:37:55;96299.13;;;3.69;55.92
706;BME280;21234;48.690;9.016;2023-04-06T06:40:22;96305.09;;;3.91;55.95
706;BME280;21234;48.690;9.016;2023-04-06T06:42:49;96311.72;;;4.22;54.58
706;BME280;21234;48.690;9.016;2023-04-06T06:45:17;96315.19;;;4.35;53.94
706;BME280;21234;48.690;9.016;2023-04-06T06:47:44;96301.31;;;4.52;53.38
706;BME280;21234;48.690;9.016;2023-04-06T06:50:12;96310.97;;;4.66;52.95
706;BME280;21234;48.690;9.016;2023-04-06T06:52:39;96310.31;;;4.84;52.98
706;BME280;21234;48.690;9.016;2023-04-06T06:55:08;96308.19;;;4.92;51.48
706;BME280;21234;48.690;9.016;2023-04-06T06:57:34;96298.97;;;5.13;50.67
706;BME280;21234;48.690;9.016;2023-04-06T07:00:01;96309.19;;;5.36;49.01
706;BME280;21234;48.690;9.016;2023-04-06T07:02:29;96307.81;;;5.58;49.26
706;BME280;21234;48.690;9.016;2023-04-06T07:04:55;96299.75;;;5.83;48.19
706;BME280;21234;48.690;9.016;2023-04-06T07:07:24;96303.41;;;5.95;49.30
706;BME280;21234;48.690;9.016;2023-04-06T07:09:50;96307.97;;;6.20;48.28
706;BME280;21234;48.690;9.016;2023-04-06T07:12:17;96305.69;;;6.60;48.10
706;BME280;21234;48.690;9.016;2023-04-06T07:14:44;96302.72;;;6.68;47.27
706;BME280;21234;48.690;9.016;2023-04-06T07:17:11;96306.59;;;6.54;45.33
706;BME280;21234;48.690;9.016;2023-04-06T07:19:39;96309.09;;;6.73;45.89
706;BME280;21234;48.690;9.016;2023-04-06T07:22:06;96310.88;;;6.98;45.88
706;BME280;21234;48.690;9.016;2023-04-06T07:24:34;96312.38;;;7.12;46.07
706;BME280;21234;48.690;9.016;2023-04-06T07:27:01;96304.38;;;7.17;44.76
706;BME280;21234;48.690;9.016;2023-04-06T07:29:28;96312.88;;;7.51;45.08
706;BME280;21234;48.690;9.016;2023-04-06T07:31:55;96313.22;;;7.84;44.00
706;BME280;21234;48.690;9.016;2023-04-06T07:34:22;96308.56;;;8.03;43.19
706;BME280;21234;48.690;9.016;2023-04-06T07:36:49;96311.03;;;8.04;43.73
706;BME280;21234;48.690;9.016;2023-04-06T07:39:18;96313.81;;;7.86;42.90
706;BME280;21234;48.690;9.016;2023-04-06T07:41:46;96312.31;;;8.02;43.24
706;BME280;21234;48.690;9.016;2023-04-06T07:44:13;96314.44;;;7.58;42.99
706;BME280;21234;48.690;9.016;2023-04-06T07:46:40;96319.03;;;7.99;43.96
706;BME280;21234;48.690;9.016;2023-04-06T07:49:07;96315.22;;;8.42;43.32
706;BME280;21234;48.690;9.016;2023-04-06T07:51:35;96314.09;;;8.20;41.86
706;BME280;21234;48.690;9.016;2023-04-06T07:54:03;96304.72;;;8.69;42.34
706;BME280;21234;48.690;9.016;2023-04-06T07:56:30;96308.81;;;8.83;40.31
706;BME280;21234;48.690;9.016;2023-04-06T07:58:58;96309.44;;;9.14;39.63
706;BME280;21234;48.690;9.016;2023-04-06T08:01:25;96308.44;;;9.03;39.70
706;BME280;21234;48.690;9.016;2023-04-06T08:03:52;96300.41;;;9.08;39.46
706;BME280;21234;48.690;9.016;2023-04-06T08:06:21;96308.09;;;9.39;39.67
706;BME280;21234;48.690;9.016;2023-04-06T08:08:47;96301.59;;;9.69;39.77
706;BME280;21234;48.690;9.016;2023-04-06T08:11:14;96303.28;;;10.03;39.52
706;BME280;21234;48.690;9.016;2023-04-06T08:13:42;96306.97;;;10.14;37.67
706;BME280;21234;48.690;9.016;2023-04-06T08:16:10;96299.94;;;10.30;40.22
706;BME280;21234;48.690;9.016;2023-04-06T08:18:37;96301.75;;;10.24;37.24
706;BME280;21234;48.690;9.016;2023-04-06T08:21:03;96298.59;;;10.66;37.32
706;BME280;21234;48.690;9.016;2023-04-06T08:23:30;96298.50;;;10.61;36.44
706;BME280;21234;48.690;9.016;2023-04-06T08:25:57;96305.84;;;10.27;36.29
706;BME280;21234;48.690;9.016;2023-04-06T08:28:24;96301.63;;;9.57;36.64
706;BME280;21234;48.690;9.016;2023-04-06T08:30:50;96304.41;;;9.91;36.92
706;BME280;21234;48.690;9.016;2023-04-06T08:33:19;96297.38;;;10.23;37.27
706;BME280;21234;48.690;9.016;2023-04-06T08:35:45;96302.78;;;10.57;35.06
706;BME280;21234;48.690;9.016;2023-04-06T08:38:12;96292.16;;;10.72;35.96
706;BME280;21234;48.690;9.016;2023-04-06T08:40:40;96299.56;;;10.43;34.17
706;BME280;21234;48.690;9.016;2023-04-06T08:43:12;96301.47;;;10.42;36.32
706;BME280;21234;48.690;9.016;2023-04-06T08:45:41;96297.16;;;10.13;35.70
706;BME280;21234;48.690;9.016;2023-04-06T08:48:08;96296.28;;;10.41;35.90
706;BME280;21234;48.690;9.016;2023-04-06T08:50:38;96290.78;;;10.74;35.66
706;BME280;21234;48.690;9.016;2023-04-06T08:53:06;96293.97;;;10.66;33.69
706;BME280;21234;48.690;9.016;2023-04-06T08:55:33;96289.94;;;10.52;33.85
706;BME280;21234;48.690;9.016;2023-04-06T08:58:01;96285.72;;;10.61;33.56
706;BME280;21234;48.690;9.016;2023-04-06T09:00:29;96288.94;;;10.97;34.20
706;BME280;21234;48.690;9.016;2023-04-06T09:02:56;96289.81;;;10.81;31.69
706;BME280;21234;48.690;9.016;2023-04-06T09:05:25;96278.84;;;10.20;32.48
706;BME280;21234;48.690;9.016;2023-04-06T09:07:53;96279.00;;;10.86;34.97
706;BME280;21234;48.690;9.016;2023-04-06T09:10:20;96276.13;;;10.75;32.33
706;BME280;21234;48.690;9.016;2023-04-06T09:12:49;96281.78;;;10.91;33.42
706;BME280;21234;48.690;9.016;2023-04-06T09:15:20;96280.22;;;10.95;32.44
706;BME280;21234;48.690;9.016;2023-04-06T09:17:47;96281.59;;;10.97;31.84
706;BME280;21234;48.690;9.016;2023-04-06T09:20:13;96282.84;;;11.11;32.22
706;BME280;21234;48.690;9.016;2023-04-06T09:22:42;96287.13;;;11.02;31.46
706;BME280;21234;48.690;9.016;2023-04-06T09:25:18;96289.56;;;10.82;31.42
706;BME280;21234;48.690;9.016;2023-04-06T09:27:46;96291.00;;;10.51;31.01
706;BME280;21234;48.690;9.016;2023-04-06T09:30:14;96288.25;;;10.29;31.05
706;BME280;21234;48.690;9.016;2023-04-06T09:32:49;96290.84;;;10.58;30.73
706;BME280;21234;48.690;9.016;2023-04-06T09:35:17;96296.44;;;10.51;30.28
706;BME280;21234;48.690;9.016;2023-04-06T09:37:46;96292.41;;;10.54;31.32
706;BME280;21234;48.690;9.016;2023-04-06T09:40:14;96292.09;;;10.50;30.95
706;BME280;21234;48.690;9.016;2023-04-06T09:42:45;96290.53;;;10.76;31.21
706;BME280;21234;48.690;9.016;2023-04-06T09:45:12;96285.69;;;10.23;30.85
706;BME280;21234;48.690;9.016;2023-04-06T09:47:41;96283.59;;;10.47;32.26
706;BME280;21234;48.690;9.016;2023-04-06T09:50:10;96286.41;;;10.52;30.20
706;BME280;21234;48.690;9.016;2023-04-06T09:52:40;96283.13;;;10.33;30.58
706;BME280;21234;48.690;9.016;2023-04-06T09:55:09;96277.09;;;11.08;33.76
706;BME280;21234;48.690;9.016;2023-04-06T09:57:45;96271.91;;;11.28;30.99
706;BME280;21234;48.690;9.016;2023-04-06T10:00:14;96271.56;;;10.98;31.14
706;BME280;21234;48.690;9.016;2023-04-06T10:02:48;96283.09;;;10.88;32.87
706;BME280;21234;48.690;9.016;2023-04-06T10:05:20;96272.56;;;11.35;32.06
706;BME280;21234;48.690;9.016;2023-04-06T10:07:50;96282.19;;;11.48;32.53
706;BME280;21234;48.690;9.016;2023-04-06T10:10:20;96274.03;;;11.75;32.45
706;BME280;21234;48.690;9.016;2023-04-06T10:12:49;96274.28;;;11.68;34.34
706;BME280;21234;48.690;9.016;2023-04-06T10:15:16;96268.94;;;11.78;30.53
706;BME280;21234;48.690;9.016;2023-04-06T10:17:43;96268.38;;;11.76;30.47
706;BME280;21234;48.690;9.016;2023-04-06T10:20:14;96260.94;;;11.72;32.43
706;BME280;21234;48.690;9.016;2023-04-06T10:22:45;96264.66;;;11.88;33.57
706;BME280;21234;48.690;9.016;2023-04-06T10:25:26;96262.63;;;12.00;32.00
706;BME280;21234;48.690;9.016;2023-04-06T10:28:00;96269.72;;;12.38;32.10
706;BME280;21234;48.690;9.016;2023-04-06T10:30:28;96257.94;;;12.27;31.80
706;BME280;21234;48.690;9.016;2023-04-06T10:32:55;96264.63;;;12.15;29.79
706;BME280;21234;48.690;9.016;2023-04-06T10:35:22;96258.50;;;12.29;33.13
706;BME280;21234;48.690;9.016;2023-04-06T10:37:52;96264.72;;;12.25;31.23
706;BME280;21234;48.690;9.016;2023-04-06T10:40:23;96260.75;;;11.78;29.18
706;BME280;21234;48.690;9.016;2023-04-06T10:42:51;96262.00;;;11.66;32.99
706;BME280;21234;48.690;9.016;2023-04-06T10:45:24;96263.38;;;12.27;31.53
706;BME280;21234;48.690;9.016;2023-04-06T10:47:52;96265.91;;;12.02;30.16
706;BME280;21234;48.690;9.016;2023-04-06T10:50:20;96257.84;;;11.85;30.22
706;BME280;21234;48.690;9.016;2023-04-06T10:52:58;96256.88;;;11.48;29.63
706;BME280;21234;48.690;9.016;2023-04-06T10:55:26;96253.66;;;11.51;31.32
706;BME280;21234;48.690;9.016;2023-04-06T10:57:53;96254.84;;;11.38;30.98
706;BME280;21234;48.690;9.016;2023-04-06T11:00:20;96255.84;;;11.54;30.54
706;BME280;21234;48.690;9.016;2023-04-06T11:02:48;96252.91;;;11.82;30.95
706;BME280;21234;48.690;9.016;2023-04-06T11:05:15;96257.75;;;12.07;31.20
706;BME280;21234;48.690;9.016;2023-04-06T11:07:44;96250.28;;;11.92;29.22
706;BME280;21234;48.690;9.016;2023-04-06T11:10:11;96245.91;;;11.91;31.31
706;BME280;21234;48.690;9.016;2023-04-06T11:12:37;96249.19;;;11.93;29.96
706;BME280;21234;48.690;9.016;2023-04-06T11:15:06;96245.72;;;11.76;28.55
706;BME280;21234;48.690;9.016;2023-04-06T11:17:35;96247.25;;;11.62;28.42
706;BME280;21234;48.690;9.016;2023-04-06T11:20:09;96246.94;;;11.58;28.75
706;BME280;21234;48.690;9.016;2023-04-06T11:22:36;96237.47;;;11.66;32.50
706;BME280;21234;48.690;9.016;2023-04-06T11:25:06;96235.84;;;11.92;31.53
706;BME280;21234;48.690;9.016;2023-04-06T11:27:33;96235.28;;;11.90;29.87
706;BME280;21234;48.690;9.016;2023-04-06T11:30:01;96228.84;;;12.06;29.80
706;BME280;21234;48.690;9.016;2023-04-06T11:32:29;96224.56;;;12.15;30.63
706;BME280;21234;48.690;9.016;2023-04-06T11:34:57;96222.69;;;11.84;29.54
706;BME280;21234;48.690;9.016;2023-04-06T11:37:27;96226.88;;;11.96;29.57
706;BME280;21234;48.690;9.016;2023-04-06T11:39:54;96227.25;;;11.51;30.01
706;BME280;21234;48.690;9.016;2023-04-06T11:42:23;96221.19;;;11.44;29.78
706;BME280;21234;48.690;9.016;2023-04-06T11:44:51;96218.81;;;11.53;30.31
706;BME280;21234;48.690;9.016;2023-04-06T11:47:18;96215.19;;;11.69;28.93
706;BME280;21234;48.690;9.016;2023-04-06T11:49:46;96216.03;;;12.01;29.68
706;BME280;21234;48.690;9.016;2023-04-06T11:52:17;96213.13;;;11.81;29.34
706;BME280;21234;48.690;9.016;2023-04-06T11:54:46;96207.34;;;12.09;32.03
706;BME280;21234;48.690;9.016;2023-04-06T11:57:15;96210.31;;;12.03;30.16
706;BME280;21234;48.690;9.016;2023-04-06T11:59:42;96203.56;;;12.10;29.69
706;BME280;21234;48.690;9.016;2023-04-06T12:02:09;96207.69;;;12.18;28.52
706;BME280;21234;48.690;9.016;2023-04-06T12:04:36;96201.03;;;11.99;30.02
706;BME280;21234;48.690;9.016;2023-04-06T12:07:04;96190.91;;;12.31;32.38
706;BME280;21234;48.690;9.016;2023-04-06T12:09:31;96188.97;;;12.79;32.49
706;BME280;21234;48.690;9.016;2023-04-06T12:12:01;96184.72;;;13.13;29.50
706;BME280;21234;48.690;9.016;2023-04-06T12:14:28;96188.66;;;12.75;29.76
706;BME280;21234;48.690;9.016;2023-04-06T12:16:56;96191.38;;;12.70;28.63
706;BME280;21234;48.690;9.016;2023-04-06T12:19:23;96190.81;;;12.68;29.99
706;BME280;21234;48.690;9.016;2023-04-06T12:21:51;96184.53;;;12.63;28.02
706;BME280;21234;48.690;9.016;2023-04-06T12:24:18;96189.19;;;12.72;28.66
706;BME280;21234;48.690;9.016;2023-04-06T12:26:45;96189.56;;;12.34;31.08
706;BME280;21234;48.690;9.016;2023-04-06T12:29:14;96193.69;;;11.99;32.09
706;BME280;21234;48.690;9.016;2023-04-06T12:31:41;96189.22;;;11.88;32.54
706;BME280;21234;48.690;9.016;2023-04-06T12:34:09;96178.38;;;12.35;32.77
706;BME280;21234;48.690;9.016;2023-04-06T12:36:37;96177.19;;;12.68;31.27
706;BME280;21234;48.690;9.016;2023-04-06T12:39:04;96183.47;;;12.64;30.24
706;BME280;21234;48.690;9.016;2023-04-06T12:41:31;96179.78;;;12.43;28.94
706;BME280;21234;48.690;9.016;2023-04-06T12:43:58;96178.22;;;12.57;29.72
706;BME280;21234;48.690;9.016;2023-04-06T12:46:27;96177.56;;;12.92;29.89
706;BME280;21234;48.690;9.016;2023-04-06T12:48:55;96168.13;;;13.20;29.58
706;BME280;21234;48.690;9.016;2023-04-06T12:51:23;96164.25;;;13.11;28.26
706;BME280;21234;48.690;9.016;2023-04-06T12:53:50;96165.16;;;13.37;31.09
706;BME280;21234;48.690;9.016;2023-04-06T12:56:18;96166.56;;;13.65;30.46
706;BME280;21234;48.690;9.016;2023-04-06T12:58:46;96164.91;;;13.99;33.37
706;BME280;21234;48.690;9.016;2023-04-06T13:01:13;96159.72;;;14.18;27.20
706;BME280;21234;48.690;9.016;2023-04-06T13:03:43;96157.41;;;14.81;29.20
706;BME280;21234;48.690;9.016;2023-04-06T13:06:10;96153.13;;;14.60;26.42
706;BME280;21234;48.690;9.016;2023-04-06T13:08:37;96146.56;;;14.35;27.13
706;BME280;21234;48.690;9.016;2023-04-06T13:11:05;96145.34;;;14.82;27.96
706;BME280;21234;48.690;9.016;2023-04-06T13:13:34;96146.75;;;14.74;25.57
706;BME280;21234;48.690;9.016;2023-04-06T13:16:07;96145.41;;;14.72;27.07
706;BME280;21234;48.690;9.016;2023-04-06T13:18:36;96142.97;;;15.25;26.12
706;BME280;21234;48.690;9.016;2023-04-06T13:21:05;96142.56;;;15.41;26.82
706;BME280;21234;48.690;9.016;2023-04-06T13:23:32;96145.44;;;15.21;27.79
706;BME280;21234;48.690;9.016;2023-04-06T13:26:00;96137.13;;;14.87;28.48
706;BME280;21234;48.690;9.016;2023-04-06T13:28:28;96141.97;;;14.21;29.44